createdAt,value
2023-12-21T00:00:36.030Z,10.18
2023-12-21T00:03:41.077Z,12.58
2023-12-21T00:06:46.837Z,12.00
2023-12-21T00:09:53.277Z,12.80
2023-12-21T00:12:58.895Z,14.35
2023-12-21T00:16:05.323Z,14.15
2023-12-21T00:19:10.903Z,12.30
2023-12-21T00:22:10.863Z,12.98
2023-12-21T00:25:15.820Z,12.63
2023-12-21T00:28:21.136Z,12.33
2023-12-21T00:31:25.733Z,11.12
2023-12-21T00:34:30.999Z,11.25
2023-12-21T00:37:35.894Z,11.53
2023-12-21T00:40:43.256Z,10.58
2023-12-21T00:43:48.758Z,10.78
2023-12-21T00:46:54.485Z,10.90
2023-12-21T00:50:00.747Z,10.10
2023-12-21T00:53:07.396Z,11.73
2023-12-21T00:56:14.272Z,12.43
2023-12-21T00:59:20.216Z,12.00
2023-12-21T01:02:26.278Z,12.60
2023-12-21T01:05:32.956Z,13.80
2023-12-21T01:08:38.046Z,13.70
2023-12-21T01:11:42.895Z,11.95
2023-12-21T01:14:49.258Z,12.90
2023-12-21T01:17:58.035Z,13.15
2023-12-21T01:21:04.041Z,13.88
2023-12-21T01:24:09.045Z,14.18
2023-12-21T01:27:22.227Z,15.60
2023-12-21T01:30:23.776Z,15.72
2023-12-21T01:33:29.501Z,14.40
2023-12-21T01:36:34.919Z,13.90
2023-12-21T01:39:40.202Z,14.28
2023-12-21T01:42:45.555Z,15.08
2023-12-21T01:45:50.942Z,15.53
2023-12-21T01:48:56.180Z,14.55
2023-12-21T01:52:03.231Z,13.83
2023-12-21T01:55:09.363Z,16.02
2023-12-21T01:58:16.137Z,14.55
2023-12-21T02:01:23.105Z,14.20
2023-12-21T02:04:30.723Z,14.73
2023-12-21T02:07:36.667Z,13.85
2023-12-21T02:10:47.892Z,13.30
2023-12-21T02:13:52.481Z,14.23
2023-12-21T02:17:12.751Z,14.68
2023-12-21T02:20:21.612Z,13.45
2023-12-21T02:23:27.236Z,13.10
2023-12-21T02:26:33.698Z,12.80
2023-12-21T02:29:38.036Z,13.80
2023-12-21T02:32:43.321Z,13.40
2023-12-21T02:35:49.127Z,12.80
2023-12-21T02:38:54.864Z,12.05
2023-12-21T02:42:06.262Z,11.55
2023-12-21T02:45:11.517Z,11.95
2023-12-21T02:48:18.228Z,12.68
2023-12-21T02:51:23.779Z,12.78
2023-12-21T02:54:29.429Z,12.28
2023-12-21T02:57:35.802Z,13.72
2023-12-21T03:00:42.062Z,12.88
2023-12-21T03:03:47.531Z,13.13
2023-12-21T03:06:53.372Z,13.98
2023-12-21T03:09:59.068Z,12.82
2023-12-21T03:13:05.465Z,14.10
2023-12-21T03:16:12.499Z,12.03
2023-12-21T03:19:18.692Z,12.55
2023-12-21T03:22:25.369Z,14.18
2023-12-21T03:25:31.147Z,19.70
2023-12-21T03:28:36.088Z,21.55
2023-12-21T03:31:42.245Z,17.30
2023-12-21T03:34:48.515Z,13.60
2023-12-21T03:37:54.954Z,15.98
2023-12-21T03:41:00.058Z,15.90
2023-12-21T03:44:06.633Z,17.62
2023-12-21T03:47:12.584Z,16.48
2023-12-21T03:50:18.563Z,16.70
2023-12-21T03:53:24.329Z,15.72
2023-12-21T03:56:29.880Z,17.27
2023-12-21T03:59:35.780Z,15.05
2023-12-21T04:02:44.094Z,14.43
2023-12-21T04:05:52.826Z,13.00
2023-12-21T04:09:00.836Z,14.53
2023-12-21T04:12:05.901Z,15.00
2023-12-21T04:15:12.750Z,14.40
2023-12-21T04:18:19.252Z,13.68
2023-12-21T04:21:25.558Z,13.35
2023-12-21T04:24:30.861Z,14.03
2023-12-21T04:27:37.370Z,13.72
2023-12-21T04:30:42.845Z,16.67
2023-12-21T04:33:48.438Z,22.42
2023-12-21T04:36:54.084Z,19.50
2023-12-21T04:39:59.790Z,16.10
2023-12-21T04:43:06.511Z,15.60
2023-12-21T04:46:11.918Z,16.02
2023-12-21T04:49:18.801Z,16.02
2023-12-21T04:52:24.359Z,14.83
2023-12-21T04:55:30.765Z,15.05
2023-12-21T04:58:36.670Z,17.75
2023-12-21T05:01:43.175Z,16.85
2023-12-21T05:04:49.808Z,18.25
2023-12-21T05:07:55.276Z,18.30
2023-12-21T05:11:00.282Z,25.17
2023-12-21T05:14:06.183Z,18.73
2023-12-21T05:17:11.783Z,18.62
2023-12-21T05:20:17.335Z,17.60
2023-12-21T05:23:23.651Z,18.98
2023-12-21T05:26:29.844Z,21.00
2023-12-21T05:29:35.365Z,22.98
2023-12-21T05:32:40.384Z,21.40
2023-12-21T05:35:45.407Z,18.40
2023-12-21T05:38:53.193Z,22.52
2023-12-21T05:41:58.054Z,23.85
2023-12-21T05:45:04.666Z,19.75
2023-12-21T05:48:11.297Z,19.95
2023-12-21T05:51:16.672Z,19.45
2023-12-21T05:54:21.823Z,20.72
2023-12-21T05:57:27.583Z,19.75
2023-12-21T06:00:34.775Z,20.15
2023-12-21T06:03:40.184Z,17.15
2023-12-21T06:06:46.631Z,14.05
2023-12-21T06:09:52.486Z,13.03
2023-12-21T06:12:59.127Z,18.23
2023-12-21T06:16:04.127Z,14.63
2023-12-21T06:19:12.474Z,13.35
2023-12-21T06:22:18.377Z,11.65
2023-12-21T06:25:24.457Z,9.33
2023-12-21T06:28:30.483Z,10.48
2023-12-21T06:31:36.492Z,10.82
2023-12-21T06:34:42.608Z,9.13
2023-12-21T06:37:49.593Z,7.50
2023-12-21T06:40:56.218Z,7.37
2023-12-21T06:44:02.409Z,6.78
2023-12-21T06:47:07.467Z,7.22
2023-12-21T06:50:13.262Z,7.17
2023-12-21T06:53:21.014Z,6.33
2023-12-21T06:56:34.114Z,6.37
2023-12-21T06:59:34.472Z,7.42
2023-12-21T07:02:40.224Z,7.00
2023-12-21T07:05:47.982Z,7.10
2023-12-21T07:08:54.495Z,6.53
2023-12-21T07:12:04.473Z,6.22
2023-12-21T07:15:11.866Z,8.40
2023-12-21T07:18:19.607Z,10.72
2023-12-21T07:21:29.699Z,13.75
2023-12-21T07:24:36.819Z,14.10
2023-12-21T07:27:43.296Z,15.98
2023-12-21T07:30:49.425Z,16.42
2023-12-21T07:33:55.749Z,16.45
2023-12-21T07:37:01.392Z,16.48
2023-12-21T07:40:07.113Z,17.30
2023-12-21T07:43:13.272Z,17.77
2023-12-21T07:46:21.609Z,15.83
2023-12-21T07:49:27.051Z,14.43
2023-12-21T07:52:33.833Z,10.60
2023-12-21T07:55:42.798Z,9.30
2023-12-21T07:58:48.816Z,9.63
2023-12-21T08:01:55.024Z,9.15
2023-12-21T08:05:04.729Z,9.08
2023-12-21T08:08:13.720Z,8.90
2023-12-21T08:11:21.368Z,9.68
2023-12-21T08:14:28.004Z,10.78
2023-12-21T08:17:35.754Z,11.93
2023-12-21T08:20:43.950Z,10.32
2023-12-21T08:23:53.330Z,12.40
2023-12-21T08:27:01.963Z,12.45
2023-12-21T08:30:12.086Z,12.30
2023-12-21T08:33:17.899Z,14.18
2023-12-21T08:36:25.481Z,13.95
2023-12-21T08:39:36.072Z,11.78
2023-12-21T08:42:42.112Z,10.58
2023-12-21T08:45:48.572Z,12.23
2023-12-21T08:48:53.690Z,9.83
2023-12-21T08:52:01.144Z,10.38
2023-12-21T08:55:08.903Z,11.73
2023-12-21T08:58:16.672Z,9.70
2023-12-21T09:01:22.770Z,11.30
2023-12-21T09:04:28.524Z,11.20
2023-12-21T09:07:33.469Z,12.37
2023-12-21T09:10:40.333Z,11.40
2023-12-21T09:13:47.148Z,15.68
2023-12-21T09:16:52.449Z,12.40
2023-12-21T09:24:06.744Z,15.08
2023-12-21T09:27:43.937Z,22.87
2023-12-21T09:30:52.837Z,16.95
2023-12-21T09:34:04.674Z,16.93
2023-12-21T09:37:14.811Z,17.65
2023-12-21T09:40:26.114Z,18.10
2023-12-21T09:43:35.671Z,23.38
2023-12-21T09:46:45.811Z,16.70
2023-12-21T09:49:52.437Z,17.62
2023-12-21T09:52:59.252Z,16.90
2023-12-21T09:56:28.399Z,16.42
2023-12-21T09:59:25.872Z,14.25
2023-12-21T10:02:40.422Z,14.18
2023-12-21T10:05:49.399Z,14.15
2023-12-21T10:08:56.072Z,18.62
2023-12-21T10:12:02.472Z,17.98
2023-12-21T10:15:14.333Z,17.95
2023-12-21T10:18:24.590Z,17.37
2023-12-21T10:21:32.005Z,17.90
2023-12-21T10:24:41.356Z,20.45
2023-12-21T10:27:49.159Z,21.50
2023-12-21T10:31:02.371Z,18.12
2023-12-21T10:34:22.093Z,15.60
2023-12-21T10:37:40.812Z,17.37
2023-12-21T10:40:50.628Z,19.12
2023-12-21T10:44:03.140Z,17.25
2023-12-21T10:47:27.174Z,18.48
2023-12-21T10:50:38.230Z,18.25
2023-12-21T10:53:46.317Z,18.65
2023-12-21T10:56:56.264Z,18.30
2023-12-21T11:00:01.757Z,18.00
2023-12-21T11:03:17.146Z,19.00
2023-12-21T11:06:24.580Z,18.42
2023-12-21T11:09:32.596Z,20.08
2023-12-21T11:12:33.264Z,19.17
2023-12-21T11:15:42.760Z,22.15
2023-12-21T11:18:52.512Z,22.50
2023-12-21T11:22:01.305Z,21.57
2023-12-21T11:25:26.637Z,23.02
2023-12-21T11:28:49.667Z,21.87
2023-12-21T11:31:59.898Z,22.35
2023-12-21T11:35:25.841Z,23.55
2023-12-21T11:38:41.241Z,22.40
2023-12-21T11:41:52.613Z,23.50
2023-12-21T11:45:04.550Z,23.27
2023-12-21T11:48:14.938Z,24.23
2023-12-21T11:51:29.572Z,24.00
2023-12-21T11:54:39.908Z,24.40
2023-12-21T11:57:51.000Z,22.77
2023-12-21T12:01:01.913Z,24.55
2023-12-21T12:04:11.984Z,26.62
2023-12-21T12:07:22.059Z,25.48
2023-12-21T12:10:29.941Z,24.23
2023-12-21T12:13:38.502Z,25.12
2023-12-21T12:16:46.531Z,23.87
2023-12-21T12:19:44.233Z,24.67
2023-12-21T12:22:51.140Z,24.05
2023-12-21T12:26:00.268Z,28.07
2023-12-21T12:29:08.128Z,20.03
2023-12-21T12:32:19.130Z,23.30
2023-12-21T12:35:29.756Z,26.25
2023-12-21T12:38:37.772Z,25.72
2023-12-21T12:41:43.735Z,25.27
2023-12-21T12:44:52.235Z,25.08
2023-12-21T12:48:04.603Z,23.67
2023-12-21T12:51:18.015Z,23.87
2023-12-21T12:54:25.776Z,20.00
2023-12-21T12:57:31.305Z,24.67
2023-12-21T13:00:38.312Z,24.05
2023-12-21T13:03:51.481Z,22.98
2023-12-21T13:06:59.580Z,23.20
2023-12-21T13:10:09.786Z,24.02
2023-12-21T13:13:14.047Z,24.65
2023-12-21T13:20:28.590Z,25.30
2023-12-21T13:24:45.907Z,27.42
2023-12-21T13:28:03.120Z,25.95
2023-12-21T13:30:59.460Z,27.60
2023-12-21T13:34:06.282Z,26.60
2023-12-21T13:37:13.505Z,29.15
2023-12-21T13:40:21.731Z,28.83
2023-12-21T13:43:27.678Z,27.50
2023-12-21T13:46:33.720Z,28.32
2023-12-21T13:49:39.996Z,25.72
2023-12-21T13:52:46.750Z,28.40
2023-12-21T13:55:54.527Z,27.37
2023-12-21T13:59:01.220Z,28.32
2023-12-21T14:02:07.389Z,26.37
2023-12-21T14:05:13.876Z,26.37
2023-12-21T14:08:20.660Z,28.38
2023-12-21T14:11:25.612Z,29.48
2023-12-21T14:14:31.289Z,29.80
2023-12-21T14:17:37.879Z,31.35
2023-12-21T14:20:43.461Z,29.10
2023-12-21T14:23:48.921Z,27.40
2023-12-21T14:26:55.202Z,28.60
2023-12-21T14:30:01.115Z,27.62
2023-12-21T14:33:06.994Z,28.12
2023-12-21T14:36:12.969Z,29.65
2023-12-21T14:39:19.325Z,27.45
2023-12-21T14:42:24.247Z,26.33
2023-12-21T14:45:29.333Z,27.32
2023-12-21T14:48:37.104Z,28.02
2023-12-21T14:51:42.113Z,29.35
2023-12-21T14:54:47.295Z,29.02
2023-12-21T14:57:55.451Z,31.62
2023-12-21T15:01:01.830Z,31.00
2023-12-21T15:04:08.482Z,28.32
2023-12-21T15:07:14.561Z,29.23
2023-12-21T15:10:21.924Z,31.12
2023-12-21T15:13:27.863Z,30.32
2023-12-21T15:16:35.418Z,27.00
2023-12-21T15:19:41.549Z,26.48
2023-12-21T15:22:47.999Z,27.10
2023-12-21T15:25:54.473Z,28.67
2023-12-21T15:29:01.492Z,27.22
2023-12-21T15:32:07.478Z,25.90
2023-12-21T15:35:14.200Z,24.72
2023-12-21T15:38:19.642Z,26.05
2023-12-21T15:41:35.015Z,28.02
2023-12-21T15:44:39.613Z,27.87
2023-12-21T15:47:47.967Z,24.40
2023-12-21T15:50:56.228Z,25.77
2023-12-21T15:54:01.277Z,28.00
2023-12-21T15:57:07.073Z,24.52
2023-12-21T16:00:14.143Z,27.13
2023-12-21T16:03:19.781Z,27.52
2023-12-21T16:06:24.926Z,29.10
2023-12-21T16:09:30.384Z,28.20
2023-12-21T16:12:36.476Z,25.52
2023-12-21T16:15:43.003Z,24.82
2023-12-21T16:18:48.441Z,25.50
2023-12-21T16:21:54.704Z,25.92
2023-12-21T16:25:01.365Z,27.20
2023-12-21T16:28:09.439Z,27.00
2023-12-21T16:31:16.212Z,23.27
2023-12-21T16:34:23.183Z,21.77
2023-12-21T16:37:29.474Z,24.85
2023-12-21T16:40:35.765Z,23.67
2023-12-21T16:43:42.336Z,35.25
2023-12-21T16:46:48.182Z,45.92
2023-12-21T16:49:54.989Z,49.03
2023-12-21T16:53:02.572Z,47.38
2023-12-21T16:56:08.115Z,54.73
2023-12-21T16:59:13.710Z,55.65
2023-12-21T17:02:19.445Z,68.00
2023-12-21T17:05:25.407Z,62.53
2023-12-21T17:08:32.827Z,68.47
2023-12-21T17:11:38.602Z,67.67
2023-12-21T17:14:44.476Z,67.47
2023-12-21T17:17:51.332Z,68.70
2023-12-21T17:20:57.051Z,62.05
2023-12-21T17:24:04.076Z,62.80
2023-12-21T17:27:10.108Z,63.98
2023-12-21T17:30:16.180Z,58.85
2023-12-21T17:33:22.667Z,66.53
2023-12-21T17:36:28.144Z,59.55
2023-12-21T17:39:33.291Z,56.10
2023-12-21T17:42:38.911Z,64.47
2023-12-21T17:45:44.297Z,58.42
2023-12-21T17:48:51.280Z,56.33
2023-12-21T17:51:57.171Z,58.08
2023-12-21T17:55:04.535Z,57.20
2023-12-21T17:58:09.924Z,57.95
2023-12-21T18:01:16.795Z,58.00
2023-12-21T18:04:22.855Z,53.58
2023-12-21T18:07:29.222Z,51.02
2023-12-21T18:10:36.411Z,51.05
2023-12-21T18:13:44.051Z,49.20
2023-12-21T18:16:50.331Z,42.65
2023-12-21T18:19:57.035Z,39.48
2023-12-21T18:23:03.332Z,41.42
2023-12-21T18:26:08.654Z,37.30
2023-12-21T18:29:15.182Z,34.27
2023-12-21T18:32:22.307Z,35.38
2023-12-21T18:35:27.602Z,34.30
2023-12-21T18:38:33.076Z,33.53
2023-12-21T18:41:38.828Z,33.60
2023-12-21T18:44:43.949Z,32.85
2023-12-21T18:47:50.050Z,31.82
2023-12-21T18:50:55.498Z,30.65
2023-12-21T18:54:01.247Z,31.07
2023-12-21T18:57:06.639Z,25.68
2023-12-21T19:00:13.173Z,25.48
2023-12-21T19:03:19.516Z,26.35
2023-12-21T19:06:28.109Z,29.67
2023-12-21T19:09:35.062Z,27.45
2023-12-21T19:12:41.304Z,27.30
2023-12-21T19:15:50.067Z,26.95
2023-12-21T19:18:57.096Z,32.15
2023-12-21T19:22:02.421Z,28.83
2023-12-21T19:25:10.586Z,29.57
2023-12-21T19:28:16.066Z,28.73
2023-12-21T19:31:24.086Z,29.60
2023-12-21T19:34:30.630Z,29.45
2023-12-21T19:37:36.728Z,27.98
2023-12-21T19:40:43.318Z,26.93
2023-12-21T19:43:49.878Z,43.02
2023-12-21T19:46:57.051Z,37.55
2023-12-21T19:50:02.439Z,36.40
2023-12-21T19:53:11.837Z,28.38
2023-12-21T19:56:19.203Z,32.00
2023-12-21T19:59:26.272Z,35.13
2023-12-21T20:02:32.302Z,28.05
2023-12-21T20:05:37.246Z,32.65
2023-12-21T20:08:42.420Z,27.70
2023-12-21T20:11:47.974Z,26.75
2023-12-21T20:14:53.329Z,28.62
2023-12-21T20:17:59.927Z,24.25
2023-12-21T20:21:06.080Z,25.02
2023-12-21T20:24:12.102Z,26.48
2023-12-21T20:27:17.229Z,27.70
2023-12-21T20:30:23.791Z,29.20
2023-12-21T20:33:29.996Z,32.08
2023-12-21T20:36:36.043Z,34.85
2023-12-21T20:39:43.593Z,30.10
2023-12-21T20:42:49.125Z,31.57
2023-12-21T20:45:55.552Z,31.97
2023-12-21T20:49:01.370Z,34.67
2023-12-21T20:52:07.776Z,34.27
2023-12-21T20:55:12.659Z,35.83
2023-12-21T20:58:18.212Z,40.30
2023-12-21T21:01:24.656Z,37.88
2023-12-21T21:04:30.021Z,36.70
2023-12-21T21:07:35.479Z,37.05
2023-12-21T21:10:40.305Z,36.13
2023-12-21T21:13:44.948Z,37.67
2023-12-21T21:16:51.341Z,35.40
2023-12-21T21:19:57.724Z,36.13
2023-12-21T21:23:02.728Z,33.40
2023-12-21T21:26:08.067Z,35.55
2023-12-21T21:29:13.501Z,33.15
2023-12-21T21:32:20.103Z,31.23
2023-12-21T21:35:26.292Z,29.35
2023-12-21T21:38:32.797Z,28.50
2023-12-21T21:41:38.943Z,29.20
2023-12-21T21:44:44.568Z,29.42
2023-12-21T21:47:51.110Z,30.20
2023-12-21T21:50:57.590Z,27.80
2023-12-21T21:54:02.652Z,29.32
2023-12-21T21:57:08.385Z,27.40
2023-12-21T22:00:14.373Z,29.67
2023-12-21T22:03:19.850Z,30.37
2023-12-21T22:06:25.160Z,30.57
2023-12-21T22:09:30.452Z,28.30
2023-12-21T22:12:36.682Z,28.40
2023-12-21T22:15:41.991Z,28.83
2023-12-21T22:18:48.225Z,32.35
2023-12-21T22:21:55.010Z,30.77
2023-12-21T22:25:00.925Z,30.43
2023-12-21T22:28:06.549Z,30.90
2023-12-21T22:31:12.427Z,29.95
2023-12-21T22:34:17.745Z,30.05
2023-12-21T22:37:23.408Z,28.73
2023-12-21T22:40:29.820Z,27.07
2023-12-21T22:43:42.444Z,25.70
2023-12-21T22:46:43.754Z,28.00
2023-12-21T22:49:50.567Z,28.50
2023-12-21T22:52:57.471Z,26.85
2023-12-21T22:56:03.090Z,27.17
2023-12-21T22:59:08.749Z,27.00
2023-12-21T23:02:14.738Z,31.73
2023-12-21T23:05:19.940Z,34.03
2023-12-21T23:08:26.731Z,34.30
2023-12-21T23:11:33.299Z,35.15
2023-12-21T23:14:39.120Z,35.03
2023-12-21T23:17:45.684Z,37.53
2023-12-21T23:20:52.092Z,35.35
2023-12-21T23:23:57.918Z,33.25
2023-12-21T23:27:04.412Z,29.07
2023-12-21T23:30:10.556Z,37.45
2023-12-21T23:33:18.379Z,35.85
2023-12-21T23:36:24.066Z,36.88
2023-12-21T23:39:30.177Z,36.90
2023-12-21T23:42:36.231Z,35.75
2023-12-21T23:45:41.567Z,36.10
2023-12-21T23:48:47.277Z,34.80
2023-12-21T23:51:53.684Z,38.83
2023-12-21T23:54:59.262Z,38.50
2023-12-21T23:58:04.749Z,36.25
